Time;durP1;ratioP1;P1;durP2;ratioP2;P2;SDS_P1;SDS_P2;PMS_P1;PMS_P2;Temp;Humidity;BMP_temperature;BMP_pressure;BME280_temperature;BME280_humidity;BME280_pressure;Samples;Min_cycle;Max_cycle;Signal;HPM_P1;HPM_P2
2021/11/14 00:00:12;;;;;;;13.93;5.72;;;14.50;99.90;;;;;;5111409;28;20016;-77
2021/11/14 00:02:38;;;;;;;14.15;5.82;;;14.50;99.90;;;;;;5111631;28;20374;-79
2021/11/14 00:05:04;;;;;;;15.35;5.72;;;14.50;99.90;;;;;;5097351;28;20080;-78
2021/11/14 00:07:30;;;;;;;13.48;5.75;;;14.50;99.90;;;;;;5080387;28;20493;-78
2021/11/14 00:09:56;;;;;;;12.80;5.50;;;14.50;99.90;;;;;;5115406;28;20024;-78
2021/11/14 00:12:21;;;;;;;11.60;5.40;;;14.50;99.90;;;;;;5113716;28;20489;-77
2021/11/14 00:14:47;;;;;;;13.20;5.65;;;14.50;99.90;;;;;;5114020;28;20056;-78
2021/11/14 00:17:13;;;;;;;18.85;7.55;;;14.60;99.90;;;;;;5114847;28;20050;-79
2021/11/14 00:19:40;;;;;;;13.05;5.60;;;14.60;99.90;;;;;;5113882;28;20120;-78
2021/11/14 00:22:06;;;;;;;15.77;6.15;;;14.60;99.90;;;;;;5114351;28;20435;-78
2021/11/14 00:24:31;;;;;;;18.15;6.35;;;14.60;99.90;;;;;;5113862;28;20244;-78
2021/11/14 00:26:57;;;;;;;12.85;6.28;;;14.70;99.90;;;;;;5113961;28;20035;-78
2021/11/14 00:29:23;;;;;;;16.27;7.88;;;14.60;99.90;;;;;;5113854;28;20080;-79
2021/11/14 00:31:49;;;;;;;15.75;6.43;;;14.60;99.90;;;;;;5114609;28;20482;-79
2021/11/14 00:34:14;;;;;;;15.40;6.90;;;14.60;99.90;;;;;;5113939;28;20427;-78
2021/11/14 00:36:42;;;;;;;16.52;6.60;;;14.60;99.90;;;;;;5096677;28;20481;-78
2021/11/14 00:39:14;;;;;;;16.38;6.60;;;14.60;99.90;;;;;;5114788;28;20019;-79
2021/11/14 00:41:40;;;;;;;12.00;5.38;;;14.70;99.90;;;;;;5114784;27;20535;-78
2021/11/14 00:44:06;;;;;;;12.60;6.50;;;14.70;99.90;;;;;;5113359;28;20107;-78
2021/11/14 00:46:32;;;;;;;11.13;4.63;;;14.70;99.90;;;;;;5113188;28;20447;-79
2021/11/14 00:48:58;;;;;;;11.45;5.43;;;14.60;99.90;;;;;;5113016;28;20048;-77
2021/11/14 00:51:29;;;;;;;14.82;5.85;;;14.60;99.90;;;;;;5113452;28;20062;-78
2021/11/14 00:53:59;;;;;;;11.90;5.63;;;14.60;99.90;;;;;;5113674;28;20039;-77
2021/11/14 00:56:26;;;;;;;12.70;5.65;;;14.70;99.90;;;;;;5113396;28;20078;-79
2021/11/14 00:58:52;;;;;;;13.52;5.78;;;14.60;99.90;;;;;;5113295;28;20024;-77
2021/11/14 01:01:18;;;;;;;10.88;5.63;;;14.50;99.90;;;;;;5114488;28;20050;-78
2021/11/14 01:03:44;;;;;;;13.88;6.10;;;14.50;99.90;;;;;;5114524;27;20470;-77
2021/11/14 01:06:10;;;;;;;14.63;6.15;;;14.50;99.90;;;;;;5096173;28;20039;-77
2021/11/14 01:08:35;;;;;;;14.68;5.40;;;14.40;99.90;;;;;;5114419;28;20093;-78
2021/11/14 01:11:03;;;;;;;15.60;6.40;;;14.40;99.90;;;;;;5112801;28;20027;-79
2021/11/14 01:13:29;;;;;;;13.68;6.13;;;14.40;99.90;;;;;;5095591;28;20032;-78
2021/11/14 01:15:56;;;;;;;13.82;6.22;;;14.40;99.90;;;;;;5112875;28;20028;-78
2021/11/14 01:18:22;;;;;;;14.07;6.72;;;14.40;99.90;;;;;;5114166;28;20027;-79
2021/11/14 01:20:52;;;;;;;11.80;5.43;;;14.40;99.90;;;;;;5114092;28;20028;-79
2021/11/14 01:23:20;;;;;;;14.15;5.60;;;14.50;99.90;;;;;;5114341;28;20023;-78
2021/11/14 01:25:47;;;;;;;13.88;5.80;;;14.50;99.90;;;;;;5112701;28;20390;-79
2021/11/14 01:28:14;;;;;;;13.88;6.18;;;14.50;99.90;;;;;;5113711;28;20030;-77
2021/11/14 01:30:43;;;;;;;15.68;5.28;;;14.50;99.90;;;;;;5112229;28;20378;-78
2021/11/14 01:33:10;;;;;;;10.95;4.97;;;14.40;99.90;;;;;;5112434;28;20546;-78
2021/11/14 01:35:37;;;;;;;12.82;5.70;;;14.30;99.90;;;;;;5113798;28;20462;-79
2021/11/14 01:38:05;;;;;;;12.07;5.97;;;14.30;99.90;;;;;;5112371;28;20034;-78
2021/11/14 01:40:35;;;;;;;13.35;5.43;;;14.20;99.90;;;;;;5112391;28;20027;-78
2021/11/14 01:43:02;;;;;;;14.45;6.10;;;14.10;99.90;;;;;;5112357;28;20111;-77
2021/11/14 01:45:28;;;;;;;14.50;5.85;;;14.10;99.90;;;;;;5095627;28;20026;-78
2021/11/14 01:47:54;;;;;;;;;;;14.10;99.90;;;;;;5114201;28;20026;-78
2021/11/14 01:50:20;;;;;;;12.07;5.03;;;14.20;99.90;;;;;;5095040;28;20372;-77
2021/11/14 01:52:48;;;;;;;14.45;5.82;;;14.20;99.90;;;;;;5095153;28;20036;-78
2021/11/14 01:55:17;;;;;;;15.70;7.00;;;14.20;99.90;;;;;;5113749;27;20422;-77
2021/11/14 01:57:43;;;;;;;13.88;6.18;;;14.20;99.90;;;;;;5112468;28;20020;-78
2021/11/14 02:00:20;;;;;;;15.38;6.68;;;14.10;99.90;;;;;;5113929;28;20020;-78
2021/11/14 02:02:46;;;;;;;14.68;5.90;;;14.10;99.90;;;;;;5113575;28;20386;-78
2021/11/14 02:05:12;;;;;;;16.30;6.28;;;14.10;99.90;;;;;;5112445;28;20030;-78
2021/11/14 02:07:38;;;;;;;12.77;6.15;;;14.10;99.90;;;;;;5113368;28;20063;-79
2021/11/14 02:10:05;;;;;;;;;;;14.10;99.90;;;;;;5112463;28;20134;-79
2021/11/14 02:12:32;;;;;;;14.50;6.07;;;14.20;99.90;;;;;;5113394;28;19918;-78
2021/11/14 02:14:57;;;;;;;16.85;6.60;;;14.20;99.90;;;;;;5112085;28;20437;-78
2021/11/14 02:17:23;;;;;;;15.10;5.90;;;14.20;99.90;;;;;;5112135;28;20057;-79
2021/11/14 02:19:51;;;;;;;14.63;6.10;;;14.20;99.90;;;;;;5111986;28;20067;-77
2021/11/14 02:22:18;;;;;;;12.65;5.68;;;14.20;99.90;;;;;;5111895;28;20035;-78
2021/11/14 02:24:44;;;;;;;14.98;6.25;;;14.20;99.90;;;;;;5111871;28;20346;-78
2021/11/14 02:27:10;;;;;;;12.75;5.50;;;14.30;99.90;;;;;;5112738;28;20485;-79
2021/11/14 02:29:35;;;;;;;13.85;5.53;;;14.30;99.90;;;;;;5112944;28;20114;-78
2021/11/14 02:32:01;;;;;;;15.52;7.30;;;14.30;99.90;;;;;;5094532;28;20050;-78
2021/11/14 02:34:27;;;;;;;16.83;7.35;;;14.30;99.90;;;;;;5111374;28;20043;-78
2021/11/14 02:36:53;;;;;;;16.90;6.70;;;14.40;99.90;;;;;;5094404;28;20570;-78
2021/11/14 02:39:18;;;;;;;12.35;5.97;;;14.40;99.90;;;;;;5094396;28;20040;-78
2021/11/14 02:41:45;;;;;;;11.73;6.05;;;14.40;99.90;;;;;;5111163;28;20116;-79
2021/11/14 02:44:12;;;;;;;13.00;5.90;;;14.40;99.90;;;;;;5112563;28;20019;-79
2021/11/14 02:46:37;;;;;;;;;;;14.40;99.90;;;;;;5111750;28;20024;-78
2021/11/14 02:49:03;;;;;;;15.60;6.00;;;14.40;99.90;;;;;;5111165;28;20274;-78
2021/11/14 02:51:31;;;;;;;16.33;6.22;;;14.40;99.90;;;;;;5112597;28;20042;-78
2021/11/14 02:53:58;;;;;;;16.33;7.30;;;14.40;99.90;;;;;;5112632;28;20031;-78
2021/11/14 02:56:24;;;;;;;18.92;7.30;;;14.40;99.90;;;;;;5111618;28;20465;-78
2021/11/14 02:58:50;;;;;;;;;;;14.40;99.90;;;;;;5111944;28;20035;-77
2021/11/14 03:01:21;;;;;;;15.90;7.03;;;14.40;99.90;;;;;;5111333;28;20372;-79
2021/11/14 03:03:52;;;;;;;17.45;6.93;;;14.40;99.90;;;;;;5112202;28;20027;-79
2021/11/14 03:06:19;;;;;;;17.35;6.32;;;14.30;99.90;;;;;;5110916;28;20031;-79
2021/11/14 03:08:44;;;;;;;14.43;7.35;;;14.30;99.90;;;;;;5110862;28;20055;-79
2021/11/14 03:11:10;;;;;;;12.57;5.55;;;14.30;99.90;;;;;;5111040;28;20500;-77
2021/11/14 03:13:36;;;;;;;15.10;6.35;;;14.30;99.90;;;;;;5112370;28;20023;-78
2021/11/14 03:16:06;;;;;;;16.55;6.25;;;14.30;99.90;;;;;;5093900;28;20026;-77
2021/11/14 03:18:31;;;;;;;14.80;5.93;;;14.20;99.90;;;;;;5112072;28;20024;-78
2021/11/14 03:20:58;;;;;;;12.38;5.28;;;14.20;99.90;;;;;;5110694;28;20027;-77
2021/11/14 03:23:26;;;;;;;15.75;6.55;;;14.20;99.90;;;;;;5110752;28;20058;-78
2021/11/14 03:25:52;;;;;;;14.85;6.43;;;14.20;99.90;;;;;;5093942;28;20031;-78
2021/11/14 03:28:19;;;;;;;12.80;6.13;;;14.20;99.90;;;;;;5112230;28;20110;-77
2021/11/14 03:30:46;;;;;;;12.82;6.28;;;14.20;99.90;;;;;;5110366;28;20126;-79
2021/11/14 03:33:14;;;;;;;13.73;6.38;;;14.20;99.90;;;;;;5111776;28;20504;-78
2021/11/14 03:35:47;;;;;;;11.10;5.10;;;14.10;99.90;;;;;;5110286;28;20024;-78
2021/11/14 03:38:13;;;;;;;14.70;6.65;;;14.10;99.90;;;;;;5110322;28;20490;-77
2021/11/14 03:40:40;;;;;;;15.20;6.70;;;14.00;99.90;;;;;;5110599;28;20024;-79
2021/11/14 03:43:06;;;;;;;19.55;7.20;;;13.90;99.90;;;;;;5110519;28;20055;-79
2021/11/14 03:45:32;;;;;;;15.82;6.25;;;13.80;99.90;;;;;;5111757;28;20053;-78
2021/11/14 03:47:58;;;;;;;15.68;6.60;;;13.70;99.90;;;;;;5110342;28;20023;-80
2021/11/14 03:50:24;;;;;;;;;;;13.70;99.90;;;;;;5110597;28;20058;-78
2021/11/14 03:52:50;;;;;;;20.35;7.28;;;13.60;99.90;;;;;;5110255;28;19907;-78
2021/11/14 03:55:16;;;;;;;14.00;6.50;;;13.60;99.90;;;;;;5111649;28;20032;-79
2021/11/14 03:57:43;;;;;;;;;;;13.60;99.90;;;;;;5111132;28;20128;-79
2021/11/14 04:00:15;;;;;;;20.23;7.03;;;13.60;99.90;;;;;;5110140;28;19964;-76
2021/11/14 04:02:41;;;;;;;15.63;7.00;;;13.50;99.90;;;;;;5110141;28;20487;-78
2021/11/14 04:05:08;;;;;;;18.50;7.78;;;13.50;99.90;;;;;;5111150;28;20478;-79
2021/11/14 04:07:34;;;;;;;15.63;7.05;;;13.40;99.90;;;;;;5111420;28;20110;-78
2021/11/14 04:10:00;;;;;;;20.55;8.75;;;13.40;99.90;;;;;;5111452;28;20411;-78
2021/11/14 04:12:25;;;;;;;19.85;8.32;;;13.30;99.90;;;;;;5111300;28;20473;-79
2021/11/14 04:14:51;;;;;;;22.27;9.55;;;13.30;99.90;;;;;;5109977;28;20030;-79
2021/11/14 04:17:17;;;;;;;20.98;8.63;;;13.30;99.90;;;;;;5110049;28;20474;-77
2021/11/14 04:19:42;;;;;;;20.45;7.20;;;13.30;99.90;;;;;;5093235;28;20073;-80
2021/11/14 04:22:08;;;;;;;16.45;6.78;;;13.30;99.90;;;;;;5110231;28;20126;-79
2021/11/14 04:24:34;;;;;;;13.27;6.57;;;13.40;99.90;;;;;;5110142;28;20437;-78
2021/11/14 04:27:00;;;;;;;16.75;6.88;;;13.40;99.90;;;;;;5109918;28;20035;-78
2021/11/14 04:29:25;;;;;;;15.10;6.47;;;13.40;99.90;;;;;;5109904;28;20084;-78
2021/11/14 04:31:51;;;;;;;14.02;6.63;;;13.50;99.90;;;;;;5109949;28;20101;-80
2021/11/14 04:34:17;;;;;;;12.95;5.63;;;13.50;99.90;;;;;;5111239;28;20062;-78
2021/11/14 04:36:43;;;;;;;14.55;6.53;;;13.50;99.90;;;;;;5110031;28;20050;-78
2021/11/14 04:39:09;;;;;;;16.92;7.78;;;13.50;99.90;;;;;;5092882;28;20473;-77
2021/11/14 04:41:34;;;;;;;14.32;7.50;;;13.50;99.90;;;;;;5110018;28;20031;-77
2021/11/14 04:44:00;;;;;;;16.60;7.22;;;13.50;99.90;;;;;;5109939;28;20504;-78
2021/11/14 04:46:26;;;;;;;17.10;7.00;;;13.50;99.90;;;;;;5092727;28;20024;-79
2021/11/14 04:48:53;;;;;;;15.30;6.85;;;13.50;99.90;;;;;;5110275;28;20064;-78
2021/11/14 04:51:18;;;;;;;17.08;7.40;;;13.60;99.90;;;;;;5079503;28;20119;-78
2021/11/14 04:53:45;;;;;;;18.00;6.72;;;13.60;99.90;;;;;;5113382;28;20135;-78
2021/11/14 04:56:10;;;;;;;;;;;13.60;99.90;;;;;;5113916;28;20028;-78
2021/11/14 04:58:36;;;;;;;15.05;6.90;;;13.60;99.90;;;;;;5113417;28;19908;-78
2021/11/14 05:01:02;;;;;;;15.68;6.82;;;13.70;99.90;;;;;;5113336;28;20031;-78
2021/11/14 05:03:28;;;;;;;11.55;6.00;;;13.70;99.90;;;;;;5114664;28;20051;-79
2021/11/14 05:05:57;;;;;;;14.38;6.35;;;13.70;99.90;;;;;;5096701;28;20086;-78
2021/11/14 05:08:23;;;;;;;11.15;5.32;;;13.70;99.90;;;;;;5096537;28;20039;-78
2021/11/14 05:10:50;;;;;;;13.50;6.50;;;13.70;99.90;;;;;;5113125;28;20035;-78
2021/11/14 05:13:17;;;;;;;11.25;6.00;;;13.70;99.90;;;;;;5096162;28;20051;-77
2021/11/14 05:15:43;;;;;;;19.13;7.40;;;13.50;99.90;;;;;;5096052;28;20020;-79
2021/11/14 05:18:09;;;;;;;14.63;5.85;;;13.40;99.90;;;;;;5112963;28;20031;-77
2021/11/14 05:20:35;;;;;;;18.17;8.30;;;13.30;99.90;;;;;;5114290;28;20035;-79
2021/11/14 05:23:02;;;;;;;18.20;7.15;;;13.20;99.90;;;;;;5114402;28;20024;-78
2021/11/14 05:25:28;;;;;;;17.45;7.18;;;13.10;99.90;;;;;;5112899;28;20104;-79
2021/11/14 05:27:54;;;;;;;13.00;5.95;;;13.00;99.90;;;;;;5095789;28;20051;-78
2021/11/14 05:30:19;;;;;;;14.90;6.32;;;13.00;99.90;;;;;;5114022;28;20499;-78
2021/11/14 05:32:45;;;;;;;16.58;6.63;;;13.00;99.90;;;;;;5113842;28;20032;-77
2021/11/14 05:35:11;;;;;;;15.73;7.03;;;12.90;99.90;;;;;;5114219;28;20028;-76
2021/11/14 05:37:38;;;;;;;15.18;6.03;;;12.80;99.90;;;;;;5112559;28;20028;-78
2021/11/14 05:40:07;;;;;;;18.83;7.32;;;12.70;99.90;;;;;;5113761;27;20102;-79
2021/11/14 05:42:33;;;;;;;16.85;6.93;;;12.60;99.90;;;;;;5113704;28;20039;-77
2021/11/14 05:44:58;;;;;;;19.00;7.15;;;12.50;99.90;;;;;;5112503;28;20073;-76
2021/11/14 05:47:26;;;;;;;15.63;7.90;;;12.50;99.90;;;;;;5095365;28;20035;-80
2021/11/14 05:49:51;;;;;;;17.38;7.68;;;12.60;99.90;;;;;;5112182;28;20052;-78
2021/11/14 05:52:17;;;;;;;15.65;6.60;;;12.70;99.90;;;;;;5112321;28;20073;-79
2021/11/14 05:54:43;;;;;;;15.93;7.18;;;12.80;99.90;;;;;;5113642;28;20382;-77
2021/11/14 05:57:08;;;;;;;13.65;6.30;;;12.90;99.90;;;;;;5113387;28;20046;-79
2021/11/14 05:59:45;;;;;;;13.18;5.70;;;13.00;99.90;;;;;;5113352;28;20385;-79
2021/11/14 06:02:16;;;;;;;10.88;5.68;;;13.00;99.90;;;;;;5111586;28;20076;-79
2021/11/14 06:07:29;;;;;;;12.77;5.80;;;12.90;99.90;;;;;;5112522;28;20038;-78
2021/11/14 06:10:00;;;;;;;19.02;7.35;;;12.80;99.90;;;;;;5095279;28;20055;-79
2021/11/14 06:12:30;;;;;;;19.55;7.25;;;12.70;99.90;;;;;;5113214;28;20149;-78
2021/11/14 06:14:56;;;;;;;14.38;6.07;;;12.60;99.90;;;;;;5111804;28;20023;-79
2021/11/14 06:17:22;;;;;;;17.25;7.20;;;12.40;99.90;;;;;;5094805;28;20068;-77
2021/11/14 06:19:51;;;;;;;12.80;5.78;;;12.30;99.90;;;;;;5111712;28;20016;-78
2021/11/14 06:22:17;;;;;;;14.75;6.30;;;12.20;99.90;;;;;;5112972;28;20067;-79
2021/11/14 06:24:44;;;;;;;12.95;6.00;;;12.20;99.90;;;;;;5111841;28;20019;-77
2021/11/14 06:27:10;;;;;;;12.43;5.57;;;12.10;99.90;;;;;;5077821;28;20488;-77
2021/11/14 06:29:36;;;;;;;17.92;7.75;;;12.00;99.90;;;;;;5094733;28;20485;-79
2021/11/14 06:32:04;;;;;;;20.27;8.63;;;12.00;99.90;;;;;;5094334;28;20032;-78
2021/11/14 06:34:30;;;;;;;19.80;10.52;;;11.90;99.90;;;;;;5113342;28;20028;-78
2021/11/14 06:36:56;;;;;;;22.02;9.68;;;11.90;99.90;;;;;;5111468;28;20038;-79
2021/11/14 06:39:21;;;;;;;24.40;10.13;;;11.90;99.90;;;;;;5111509;28;20538;-78
2021/11/14 06:41:47;;;;;;;25.20;11.65;;;11.80;99.90;;;;;;5112671;28;20063;-77
2021/11/14 06:44:13;;;;;;;23.88;10.77;;;11.80;99.90;;;;;;5094232;28;20309;-78
2021/11/14 06:46:39;;;;;;;16.05;8.10;;;11.80;99.90;;;;;;5111404;28;20028;-77
2021/11/14 06:49:04;;;;;;;21.77;8.50;;;11.70;99.90;;;;;;5110877;28;20493;-77
2021/11/14 06:51:31;;;;;;;18.30;6.43;;;11.70;99.90;;;;;;5094092;28;20148;-79
2021/11/14 06:53:56;;;;;;;;;;;11.60;99.90;;;;;;5111572;28;20027;-77
2021/11/14 06:56:23;;;;;;;15.52;6.43;;;11.50;99.90;;;;;;5111329;28;19908;-79
2021/11/14 06:58:49;;;;;;;;;;;11.40;99.90;;;;;;5094747;28;20051;-77
2021/11/14 07:01:16;;;;;;;15.02;6.50;;;11.40;99.90;;;;;;5111039;28;19912;-78
2021/11/14 07:03:41;;;;;;;;;;;11.40;99.90;;;;;;5113233;28;20035;-79
2021/11/14 07:06:07;;;;;;;16.48;6.13;;;11.40;99.90;;;;;;5112119;28;19910;-77
2021/11/14 07:08:33;;;;;;;18.45;8.00;;;11.40;99.90;;;;;;5112099;28;20032;-78
2021/11/14 07:10:59;;;;;;;;;;;11.40;99.90;;;;;;5112646;28;20442;-79
2021/11/14 07:13:25;;;;;;;18.50;8.32;;;11.40;99.90;;;;;;5110847;28;20036;-78
2021/11/14 07:15:51;;;;;;;15.15;7.13;;;11.40;99.90;;;;;;5112195;28;20089;-79
2021/11/14 07:18:17;;;;;;;22.00;9.68;;;11.40;99.90;;;;;;5111994;28;20061;-77
2021/11/14 07:20:43;;;;;;;17.77;7.45;;;11.40;99.90;;;;;;5110782;28;20032;-77
2021/11/14 07:23:09;;;;;;;18.58;7.68;;;11.40;99.90;;;;;;5112072;28;20498;-78
2021/11/14 07:25:35;;;;;;;17.85;7.80;;;11.30;99.90;;;;;;5110977;28;20041;-77
2021/11/14 07:28:00;;;;;;;14.30;6.47;;;11.30;99.90;;;;;;5110455;28;20043;-79
2021/11/14 07:30:26;;;;;;;19.02;8.07;;;11.30;99.90;;;;;;5111800;28;20080;-78
2021/11/14 07:32:54;;;;;;;17.85;8.07;;;11.30;99.90;;;;;;5110340;28;20486;-79
2021/11/14 07:35:22;;;;;;;14.57;7.35;;;11.30;99.90;;;;;;5111758;28;20024;-78
2021/11/14 07:37:48;;;;;;;19.85;8.82;;;11.20;99.90;;;;;;5094160;28;20455;-78
2021/11/14 07:40:16;;;;;;;13.18;6.53;;;11.20;99.90;;;;;;5111880;28;20020;-77
2021/11/14 07:42:44;;;;;;;11.13;5.28;;;11.20;99.90;;;;;;5110595;28;20027;-78
2021/11/14 07:45:12;;;;;;;11.63;5.78;;;11.10;99.90;;;;;;5111947;28;20482;-79
2021/11/14 07:47:39;;;;;;;18.88;9.27;;;11.10;99.90;;;;;;5111769;28;20039;-77
2021/11/14 07:50:04;;;;;;;;;;;11.00;99.90;;;;;;5110494;28;20059;-77
2021/11/14 07:52:31;;;;;;;20.60;8.90;;;11.00;99.90;;;;;;5111503;28;19912;-78
2021/11/14 07:54:58;;;;;;;46.42;10.48;;;11.00;99.90;;;;;;5093273;28;20032;-79
2021/11/14 07:57:24;;;;;;;59.70;11.88;;;11.00;99.90;;;;;;5093498;28;20060;-78
2021/11/14 07:59:50;;;;;;;30.85;7.78;;;11.00;99.90;;;;;;5110210;28;20028;-77
2021/11/14 08:02:16;;;;;;;100.75;13.40;;;11.10;99.90;;;;;;5110033;28;20031;-79
2021/11/14 08:04:42;;;;;;;77.97;12.25;;;11.10;99.90;;;;;;5111386;28;20036;-78
2021/11/14 08:07:08;;;;;;;15.52;5.95;;;11.00;99.90;;;;;;5109989;28;20031;-77
2021/11/14 08:09:35;;;;;;;30.90;8.23;;;11.00;99.90;;;;;;5111299;28;20043;-78
2021/11/14 08:12:00;;;;;;;21.52;7.53;;;11.10;99.90;;;;;;5111371;28;20038;-80
2021/11/14 08:14:26;;;;;;;28.23;8.27;;;11.00;99.90;;;;;;5111544;28;20102;-78
2021/11/14 08:16:52;;;;;;;18.27;7.90;;;11.10;99.90;;;;;;5111329;28;20470;-78
2021/11/14 08:19:18;;;;;;;22.85;8.60;;;11.10;99.90;;;;;;5109965;28;20050;-77
2021/11/14 08:21:44;;;;;;;24.02;7.97;;;11.20;99.90;;;;;;5092930;28;20035;-78
2021/11/14 08:24:09;;;;;;;74.47;15.10;;;11.20;99.90;;;;;;5112429;28;20483;-78
2021/11/14 08:26:35;;;;;;;25.13;7.72;;;11.20;99.90;;;;;;5113904;28;20032;-78
2021/11/14 08:29:01;;;;;;;18.15;6.32;;;11.20;99.90;;;;;;5096825;28;20067;-78
2021/11/14 08:31:27;;;;;;;14.98;6.75;;;11.30;99.90;;;;;;5115359;28;20120;-79
2021/11/14 08:33:52;;;;;;;14.80;6.15;;;11.40;99.90;;;;;;5114108;28;20028;-79
2021/11/14 08:36:19;;;;;;;21.65;7.20;;;11.50;99.90;;;;;;5115342;28;20035;-77
2021/11/14 08:38:45;;;;;;;21.55;8.77;;;11.60;99.90;;;;;;5114989;28;20027;-77
2021/11/14 08:41:11;;;;;;;29.33;9.10;;;11.80;99.90;;;;;;5115414;28;20072;-78
2021/11/14 08:43:39;;;;;;;20.83;8.95;;;12.00;99.90;;;;;;5116287;28;20023;-78
2021/11/14 08:46:09;;;;;;;17.83;7.20;;;12.10;99.90;;;;;;5097365;28;20032;-78
2021/11/14 08:48:35;;;;;;;13.68;6.03;;;12.20;99.90;;;;;;5112125;28;20051;-79
2021/11/14 08:51:01;;;;;;;18.52;7.38;;;12.30;99.90;;;;;;5113146;28;20537;-77
2021/11/14 08:53:26;;;;;;;15.45;7.32;;;12.40;99.90;;;;;;5114724;28;20072;-77
2021/11/14 08:55:54;;;;;;;13.98;6.25;;;12.50;99.90;;;;;;5113291;28;20028;-78
2021/11/14 08:58:21;;;;;;;13.80;5.43;;;12.70;99.90;;;;;;5114435;28;20051;-77
2021/11/14 09:00:47;;;;;;;17.15;6.93;;;12.90;99.90;;;;;;5113048;28;20024;-78
2021/11/14 09:03:13;;;;;;;12.20;6.20;;;13.10;99.90;;;;;;5113815;28;20020;-78
2021/11/14 09:05:38;;;;;;;15.43;6.72;;;13.20;99.90;;;;;;5112394;28;20028;-77
2021/11/14 09:08:06;;;;;;;14.45;6.30;;;13.20;99.90;;;;;;5112247;28;20034;-78
2021/11/14 09:10:34;;;;;;;12.50;6.70;;;13.40;99.90;;;;;;5111218;28;20028;-79
2021/11/14 09:13:01;;;;;;;21.98;9.00;;;13.50;99.90;;;;;;5111219;28;20020;-78
2021/11/14 09:15:29;;;;;;;13.95;7.68;;;13.70;99.90;;;;;;5094958;28;20028;-69
2021/11/14 09:17:56;;;;;;;14.98;6.88;;;13.80;99.90;;;;;;5113654;28;20481;-78
2021/11/14 09:20:23;;;;;;;13.75;6.72;;;14.20;99.90;;;;;;5095028;28;20024;-77
2021/11/14 09:22:49;;;;;;;18.63;7.80;;;14.40;99.90;;;;;;5112203;28;20508;-79
2021/11/14 09:25:15;;;;;;;12.15;6.15;;;14.80;99.90;;;;;;5111874;28;20032;-77
2021/11/14 09:27:41;;;;;;;12.65;7.15;;;15.00;99.90;;;;;;5110318;28;20034;-78
2021/11/14 09:30:08;;;;;;;10.70;6.65;;;15.00;99.50;;;;;;5111934;28;20024;-77
2021/11/14 09:32:35;;;;;;;11.35;6.45;;;15.00;99.20;;;;;;5110636;28;20518;-80
2021/11/14 09:35:01;;;;;;;11.38;6.32;;;15.00;99.10;;;;;;5110545;28;20505;-77
2021/11/14 09:37:26;;;;;;;11.43;6.07;;;15.00;99.30;;;;;;5111888;28;20020;-77
2021/11/14 09:39:52;;;;;;;15.68;7.22;;;15.00;99.10;;;;;;5095342;28;20038;-79
2021/11/14 09:42:19;;;;;;;;;;;14.90;99.10;;;;;;5112669;28;20104;-78
2021/11/14 09:44:45;;;;;;;15.98;7.65;;;14.90;99.20;;;;;;5113449;28;19915;-79
2021/11/14 09:47:15;;;;;;;13.25;7.20;;;15.00;99.10;;;;;;5113486;28;20069;-79
2021/11/14 09:49:41;;;;;;;14.65;7.50;;;15.00;99.10;;;;;;5111924;28;20493;-78
2021/11/14 09:52:07;;;;;;;12.75;7.75;;;15.00;99.10;;;;;;5113090;28;20080;-78
2021/11/14 09:54:34;;;;;;;18.10;8.48;;;15.00;99.10;;;;;;5112177;28;20142;-78
2021/11/14 09:57:00;;;;;;;16.90;8.55;;;15.00;99.10;;;;;;5113320;28;20474;-79
2021/11/14 09:59:27;;;;;;;16.80;8.38;;;15.10;99.20;;;;;;5112094;28;20016;-78
2021/11/14 10:01:56;;;;;;;16.20;8.32;;;15.10;99.20;;;;;;5113727;28;20397;-78
2021/11/14 10:04:23;;;;;;;13.50;6.72;;;15.30;99.30;;;;;;5112855;28;20393;-78
2021/11/14 10:07:03;;;;;;;14.48;6.78;;;15.30;99.20;;;;;;5111458;28;20596;-79
2021/11/14 10:09:31;;;;;;;13.70;6.70;;;15.40;99.10;;;;;;5111445;28;20027;-78
2021/11/14 10:11:57;;;;;;;12.82;6.60;;;15.40;99.10;;;;;;5112387;28;20024;-77
2021/11/14 10:14:23;;;;;;;15.18;7.10;;;15.40;99.10;;;;;;5112748;28;20029;-78
2021/11/14 10:16:49;;;;;;;11.32;5.80;;;15.40;99.20;;;;;;5111205;28;20059;-78
2021/11/14 10:19:15;;;;;;;12.57;6.93;;;15.40;99.20;;;;;;5111272;28;20081;-77
2021/11/14 10:21:45;;;;;;;10.75;6.45;;;15.40;99.20;;;;;;5094295;28;20081;-79
2021/11/14 10:24:11;;;;;;;10.07;5.72;;;15.50;99.20;;;;;;5112301;28;20027;-78
2021/11/14 10:26:38;;;;;;;;;;;15.50;99.30;;;;;;5111881;28;20036;-77
2021/11/14 10:29:07;;;;;;;11.30;4.90;;;15.60;99.40;;;;;;5112563;28;19903;-78
2021/11/14 10:31:34;;;;;;;10.23;4.90;;;15.70;99.30;;;;;;5112335;28;20027;-77
2021/11/14 10:34:00;;;;;;;10.02;4.38;;;15.70;99.20;;;;;;5112158;28;20485;-78
2021/11/14 10:36:27;;;;;;;9.80;4.35;;;15.70;99.20;;;;;;5111047;28;20035;-78
2021/11/14 10:39:08;;;;;;;7.68;3.75;;;15.70;99.20;;;;;;5111120;28;20505;-79
2021/11/14 10:41:40;;;;;;;7.78;3.53;;;15.80;99.30;;;;;;5111947;28;20028;-78
2021/11/14 10:44:14;;;;;;;6.95;3.03;;;15.80;99.30;;;;;;5110068;28;20027;-79
2021/11/14 10:46:39;;;;;;;6.40;2.40;;;15.80;99.30;;;;;;5111590;28;20554;-78
2021/11/14 10:49:07;;;;;;;5.20;2.47;;;15.80;99.30;;;;;;5111795;28;20093;-77
2021/11/14 10:51:34;;;;;;;7.97;3.20;;;15.80;99.30;;;;;;5110628;28;20032;-77
2021/11/14 10:54:03;;;;;;;8.30;3.42;;;15.90;99.20;;;;;;5093959;28;20023;-77
2021/11/14 10:56:29;;;;;;;8.38;3.17;;;15.90;99.20;;;;;;5111895;28;20023;-78
2021/11/14 10:58:55;;;;;;;8.93;3.05;;;15.90;99.20;;;;;;5111981;28;20034;-78
2021/11/14 11:01:21;;;;;;;6.35;2.15;;;16.00;99.10;;;;;;5110707;28;20034;-79
2021/11/14 11:03:49;;;;;;;9.32;2.80;;;16.00;99.00;;;;;;5110297;28;20024;-79
2021/11/14 11:06:26;;;;;;;8.18;2.88;;;16.00;98.90;;;;;;5110391;28;20132;-78
2021/11/14 11:08:56;;;;;;;;;;;16.00;98.90;;;;;;5110644;28;20390;-77
2021/11/14 11:11:22;;;;;;;6.35;2.55;;;16.00;98.90;;;;;;5111373;28;19914;-79
2021/11/14 11:13:58;;;;;;;7.47;3.17;;;15.90;98.80;;;;;;5112039;28;20031;-78
2021/11/14 11:16:30;;;;;;;6.30;2.67;;;15.90;98.90;;;;;;5094572;28;20026;-77
2021/11/14 11:19:06;;;;;;;5.13;2.40;;;15.90;98.90;;;;;;5111890;28;20031;-77
2021/11/14 11:21:43;;;;;;;6.38;2.63;;;15.80;99.00;;;;;;5110198;28;20028;-79
2021/11/14 11:24:12;;;;;;;;;;;15.90;99.10;;;;;;5112044;28;20074;-78
2021/11/14 11:26:39;;;;;;;9.82;3.63;;;15.90;99.20;;;;;;5111522;28;19931;-77
2021/11/14 11:29:17;;;;;;;8.18;2.83;;;16.00;99.20;;;;;;5092488;28;20042;-78
2021/11/14 11:31:43;;;;;;;7.68;3.00;;;16.00;99.30;;;;;;5111161;28;20035;-78
2021/11/14 11:34:09;;;;;;;;;;;16.10;99.20;;;;;;5111900;28;20019;-78
2021/11/14 11:36:35;;;;;;;8.45;3.42;;;16.10;99.30;;;;;;5109958;28;20255;-79
2021/11/14 11:39:00;;;;;;;;;;;16.20;99.20;;;;;;5093612;28;20122;-78
2021/11/14 11:41:28;;;;;;;4.90;2.03;;;16.20;99.20;;;;;;5111298;28;20006;-78
2021/11/14 11:43:56;;;;;;;5.93;2.05;;;16.20;99.20;;;;;;5093454;28;20034;-79
2021/11/14 11:46:32;;;;;;;7.45;2.03;;;16.20;99.20;;;;;;5093102;28;20027;-77
2021/11/14 11:49:05;;;;;;;7.30;2.28;;;16.30;99.30;;;;;;5109674;28;20042;-78
2021/11/14 11:51:32;;;;;;;6.07;3.00;;;16.30;99.20;;;;;;5110976;28;20036;-76
2021/11/14 11:54:10;;;;;;;6.88;2.88;;;16.40;99.20;;;;;;5111188;28;20068;-78
2021/11/14 11:56:40;;;;;;;7.80;2.50;;;16.50;99.30;;;;;;5110892;28;20023;-77
2021/11/14 11:59:18;;;;;;;8.23;2.70;;;16.60;99.20;;;;;;5110764;28;20193;-78
2021/11/14 12:01:48;;;;;;;7.07;2.95;;;16.70;99.20;;;;;;5114739;28;20415;-79
2021/11/14 12:04:21;;;;;;;5.93;2.28;;;16.80;99.10;;;;;;5113592;28;20024;-77
2021/11/14 12:06:58;;;;;;;5.50;2.60;;;16.80;99.00;;;;;;5115297;28;20079;-75
2021/11/14 12:09:26;;;;;;;;;;;16.90;98.90;;;;;;5114171;28;20106;-78
2021/11/14 12:11:52;;;;;;;6.57;2.50;;;16.90;98.90;;;;;;5114802;28;19958;-78
2021/11/14 12:14:24;;;;;;;8.43;3.10;;;16.90;98.80;;;;;;5113643;28;20530;-78
2021/11/14 12:16:56;;;;;;;8.60;3.42;;;16.90;98.70;;;;;;5113575;28;20032;-77
2021/11/14 12:19:25;;;;;;;8.85;3.08;;;16.90;98.70;;;;;;5114602;28;20322;-79
2021/11/14 12:22:12;;;;;;;6.95;3.40;;;16.90;98.70;;;;;;5114665;28;20028;-79
2021/11/14 12:24:51;;;;;;;;;;;16.80;98.60;;;;;;5115164;28;20020;-80
2021/11/14 12:27:32;;;;;;;8.15;3.22;;;16.80;98.70;;;;;;5112656;28;19950;-77
2021/11/14 12:30:03;;;;;;;7.25;3.22;;;16.80;98.70;;;;;;5112984;28;20028;-77
2021/11/14 12:32:42;;;;;;;9.25;4.10;;;16.70;98.70;;;;;;5113169;28;20477;-77
2021/11/14 12:35:14;;;;;;;8.95;3.10;;;16.70;98.70;;;;;;5115390;28;20020;-79
2021/11/14 12:38:09;;;;;;;8.35;2.95;;;16.60;98.80;;;;;;5114785;28;20133;-79
2021/11/14 12:40:39;;;;;;;8.20;2.30;;;16.70;98.90;;;;;;5112922;28;20036;-79
2021/11/14 12:43:10;;;;;;;6.93;2.50;;;16.70;98.90;;;;;;5117007;28;20031;-78
2021/11/14 12:46:14;;;;;;;7.13;2.38;;;16.70;98.90;;;;;;5115437;28;20206;-79